createdAt,value
2023-02-18T00:00:37.386Z,2.97
2023-02-18T00:05:39.168Z,3.20
2023-02-18T00:10:42.191Z,2.00
2023-02-18T00:16:05.631Z,3.55
2023-02-18T00:21:08.870Z,3.47
2023-02-18T00:26:19.216Z,2.63
2023-02-18T00:31:41.072Z,2.80
2023-02-18T00:36:43.462Z,3.08
2023-02-18T00:41:46.419Z,3.17
2023-02-18T00:46:53.708Z,2.55
2023-02-18T00:51:58.688Z,2.70
2023-02-18T00:57:00.560Z,2.72
2023-02-18T01:02:07.921Z,2.13
2023-02-18T01:07:10.491Z,2.78
2023-02-18T01:12:12.500Z,1.67
2023-02-18T01:17:14.428Z,1.80
2023-02-18T01:22:16.221Z,1.75
2023-02-18T01:27:18.036Z,1.33
2023-02-18T01:32:19.962Z,1.40
2023-02-18T01:37:22.216Z,1.48
2023-02-18T01:42:29.526Z,1.30
2023-02-18T01:47:34.527Z,1.05
2023-02-18T01:52:36.437Z,1.05
2023-02-18T01:57:39.018Z,0.60
2023-02-18T02:02:47.051Z,0.93
2023-02-18T02:13:18.758Z,1.00
2023-02-18T02:18:20.681Z,1.02
2023-02-18T02:23:38.684Z,1.20
2023-02-18T02:29:12.778Z,1.05
2023-02-18T02:34:23.611Z,1.92
2023-02-18T02:39:38.180Z,0.95
2023-02-18T02:44:51.272Z,1.00
2023-02-18T02:50:10.549Z,1.40
2023-02-18T02:55:14.213Z,1.15
2023-02-18T03:00:34.664Z,1.15
2023-02-18T03:05:54.669Z,1.07
2023-02-18T03:11:06.999Z,0.98
2023-02-18T03:16:33.837Z,2.13
2023-02-18T03:21:50.864Z,1.40
2023-02-18T03:27:07.672Z,1.15
2023-02-18T03:32:13.216Z,1.30
2023-02-18T03:37:16.555Z,1.95
2023-02-18T03:42:19.148Z,0.90
2023-02-18T03:47:25.194Z,1.10
2023-02-18T03:52:27.110Z,1.40
2023-02-18T03:57:47.271Z,1.40
2023-02-18T04:02:53.282Z,1.08
2023-02-18T04:07:55.397Z,1.33
2023-02-18T04:12:57.334Z,1.60
2023-02-18T04:17:59.188Z,1.13
2023-02-18T04:23:01.057Z,1.60
2023-02-18T04:28:03.130Z,1.75
2023-02-18T04:33:05.130Z,1.85
2023-02-18T04:38:08.606Z,1.35
2023-02-18T04:43:10.522Z,2.13
2023-02-18T04:48:12.523Z,1.85
2023-02-18T04:53:14.613Z,2.00
2023-02-18T04:58:16.492Z,2.78
2023-02-18T05:03:18.584Z,1.70
2023-02-18T05:08:20.824Z,1.90
2023-02-18T05:13:23.080Z,2.28
2023-02-18T05:18:25.176Z,2.28
2023-02-18T05:23:27.441Z,1.90
2023-02-18T05:28:29.813Z,2.78
2023-02-18T05:33:31.682Z,2.42
2023-02-18T05:38:33.825Z,2.92
2023-02-18T05:43:55.860Z,2.67
2023-02-18T05:49:48.156Z,2.75
2023-02-18T05:54:49.994Z,3.25
2023-02-18T06:06:08.464Z,3.13
2023-02-18T06:11:10.620Z,3.00
2023-02-18T06:16:12.591Z,2.58
2023-02-18T06:21:26.334Z,2.80
2023-02-18T06:26:30.778Z,2.55
2023-02-18T06:31:45.049Z,2.58
2023-02-18T06:36:54.914Z,2.70
2023-02-18T06:41:56.815Z,2.85
2023-02-18T06:46:58.692Z,2.22
2023-02-18T06:52:02.758Z,3.40
2023-02-18T06:57:04.748Z,2.80
2023-02-18T07:02:08.686Z,2.58
2023-02-18T07:07:10.709Z,2.70
2023-02-18T07:12:12.600Z,3.42
2023-02-18T07:17:15.169Z,2.92
2023-02-18T07:22:17.835Z,3.35
2023-02-18T07:27:21.275Z,3.00
2023-02-18T07:32:23.322Z,2.45
2023-02-18T07:37:25.404Z,2.53
2023-02-18T07:42:27.347Z,3.05
2023-02-18T07:48:00.369Z,2.75
2023-02-18T07:53:02.415Z,3.58
2023-02-18T07:58:04.307Z,3.17
2023-02-18T08:03:06.245Z,3.45
2023-02-18T08:08:16.707Z,3.58
2023-02-18T08:13:20.365Z,3.33
2023-02-18T08:18:37.358Z,3.30
2023-02-18T08:24:04.279Z,3.90
2023-02-18T08:29:06.186Z,2.65
2023-02-18T08:34:09.544Z,2.38
2023-02-18T08:39:14.469Z,2.05
2023-02-18T08:44:16.378Z,1.75
2023-02-18T08:49:24.371Z,1.35
2023-02-18T08:54:26.273Z,1.25
2023-02-18T08:59:28.405Z,1.70
2023-02-18T09:04:31.027Z,1.60
2023-02-18T09:09:33.233Z,1.67
2023-02-18T09:14:35.437Z,1.10
2023-02-18T09:19:37.230Z,1.10
2023-02-18T09:25:04.837Z,0.82
2023-02-18T09:30:07.849Z,1.10
2023-02-18T09:35:10.211Z,0.70
2023-02-18T09:40:36.364Z,0.80
2023-02-18T09:45:39.104Z,0.90
2023-02-18T09:50:41.097Z,0.70
2023-02-18T09:55:46.495Z,0.60
2023-02-18T10:07:03.939Z,0.73
2023-02-18T10:12:20.574Z,0.73
2023-02-18T10:17:31.135Z,0.70
2023-02-18T10:22:33.292Z,0.80
2023-02-18T10:27:39.472Z,0.50
2023-02-18T10:39:02.313Z,0.60
2023-02-18T10:44:42.826Z,0.45
2023-02-18T10:50:25.239Z,0.50
2023-02-18T10:55:40.058Z,0.40
2023-02-18T11:00:51.414Z,0.50
2023-02-18T11:06:33.102Z,0.50
2023-02-18T11:11:39.068Z,0.40
2023-02-18T11:16:46.753Z,0.40
2023-02-18T11:21:48.935Z,0.50
2023-02-18T11:26:51.343Z,0.30
2023-02-18T11:31:57.013Z,0.30
2023-02-18T11:37:20.085Z,0.40
2023-02-18T11:42:25.399Z,0.40
2023-02-18T11:47:34.889Z,0.40
2023-02-18T11:52:40.239Z,0.32
2023-02-18T11:57:48.421Z,0.50
2023-02-18T12:02:53.172Z,0.40
2023-02-18T12:08:18.080Z,0.70
2023-02-18T12:13:42.461Z,0.60
2023-02-18T12:18:56.676Z,0.52
2023-02-18T12:24:04.471Z,0.50
2023-02-18T12:34:51.695Z,0.90
2023-02-18T12:40:18.294Z,0.90
2023-02-18T12:45:44.756Z,0.93
2023-02-18T12:50:58.392Z,1.08
2023-02-18T12:56:37.444Z,0.93
2023-02-18T13:01:53.448Z,1.27
2023-02-18T13:07:19.754Z,1.10
2023-02-18T13:12:36.464Z,0.80
2023-02-18T13:17:41.498Z,0.63
2023-02-18T13:22:45.922Z,1.15
2023-02-18T13:28:26.294Z,0.90
2023-02-18T13:34:05.410Z,0.90
2023-02-18T13:39:20.317Z,0.70
2023-02-18T13:44:22.793Z,0.75
2023-02-18T13:49:34.006Z,0.60
2023-02-18T13:54:45.222Z,0.85
2023-02-18T14:00:03.029Z,0.60
2023-02-18T14:05:09.731Z,0.88
2023-02-18T14:10:27.684Z,0.60
2023-02-18T14:15:39.840Z,0.90
2023-02-18T14:20:44.608Z,0.65
2023-02-18T14:25:51.467Z,0.70
2023-02-18T14:30:54.165Z,0.73
2023-02-18T14:36:32.996Z,0.70
2023-02-18T14:47:12.456Z,0.43
2023-02-18T14:52:35.112Z,0.70
2023-02-18T14:57:51.254Z,0.50
2023-02-18T15:02:55.813Z,0.57
2023-02-18T15:08:03.853Z,0.70
2023-02-18T15:13:13.160Z,0.60
2023-02-18T15:18:36.443Z,0.52
2023-02-18T15:23:41.152Z,0.32
2023-02-18T15:29:00.784Z,0.63
2023-02-18T15:34:04.460Z,0.50
2023-02-18T15:39:06.606Z,0.50
2023-02-18T15:44:09.003Z,0.50
2023-02-18T15:49:15.194Z,0.45
2023-02-18T15:54:26.380Z,0.47
2023-02-18T15:59:36.700Z,0.70
2023-02-18T16:04:41.458Z,0.60
2023-02-18T16:09:50.246Z,0.40
2023-02-18T16:14:55.125Z,0.70
2023-02-18T16:20:05.238Z,0.40
2023-02-18T16:25:13.621Z,0.38
2023-02-18T16:35:22.947Z,0.40
2023-02-18T16:40:40.752Z,0.38
2023-02-18T16:45:48.285Z,0.20
2023-02-18T16:51:01.168Z,0.40
2023-02-18T16:56:03.232Z,0.40
2023-02-18T17:01:05.550Z,0.40
2023-02-18T17:06:07.915Z,0.40
2023-02-18T17:12:07.833Z,0.50
2023-02-18T17:17:31.202Z,0.47
2023-02-18T17:22:35.645Z,0.40
2023-02-18T17:27:37.848Z,0.60
2023-02-18T17:32:40.634Z,0.40
2023-02-18T17:37:42.825Z,0.40
2023-02-18T17:48:03.385Z,0.35
2023-02-18T17:53:05.638Z,0.40
2023-02-18T17:58:07.549Z,0.50
2023-02-18T18:03:11.882Z,0.50
2023-02-18T18:08:14.552Z,0.65
2023-02-18T18:13:23.896Z,0.70
2023-02-18T18:18:27.781Z,0.40
2023-02-18T18:23:32.997Z,0.68
2023-02-18T18:28:37.534Z,0.40
2023-02-18T18:33:42.095Z,0.25
2023-02-18T18:38:44.093Z,0.50
2023-02-18T18:43:46.839Z,0.90
2023-02-18T18:48:49.684Z,0.63
2023-02-18T18:53:51.683Z,0.93
2023-02-18T18:59:16.570Z,0.80
2023-02-18T19:04:19.303Z,0.93
2023-02-18T19:09:21.575Z,0.60
2023-02-18T19:14:23.496Z,0.52
2023-02-18T19:19:28.121Z,0.50
2023-02-18T19:24:33.265Z,0.70
2023-02-18T19:29:36.229Z,0.60
2023-02-18T19:39:53.749Z,0.50
2023-02-18T19:45:04.648Z,1.30
2023-02-18T19:55:23.940Z,0.57
2023-02-18T20:00:25.882Z,0.55
2023-02-18T20:05:27.852Z,0.73
2023-02-18T20:10:29.740Z,0.70
2023-02-18T20:15:31.594Z,0.60
2023-02-18T20:21:05.989Z,0.63
2023-02-18T20:26:09.748Z,1.00
2023-02-18T20:31:15.545Z,1.05
2023-02-18T20:37:07.910Z,1.15
2023-02-18T20:42:16.377Z,1.00
2023-02-18T20:47:19.234Z,1.02
2023-02-18T20:52:21.181Z,1.08
2023-02-18T20:57:23.290Z,0.93
2023-02-18T21:02:25.401Z,0.75
2023-02-18T21:07:27.407Z,1.10
2023-02-18T21:12:29.654Z,0.98
2023-02-18T21:17:41.533Z,0.80
2023-02-18T21:22:43.624Z,0.80
2023-02-18T21:27:48.487Z,1.15
2023-02-18T21:32:54.246Z,0.88
2023-02-18T21:37:56.937Z,1.08
2023-02-18T21:42:59.533Z,0.95
2023-02-18T21:48:21.455Z,1.13
2023-02-18T21:53:23.385Z,1.02
2023-02-18T21:58:25.240Z,1.52
2023-02-18T22:03:33.122Z,1.30
2023-02-18T22:14:23.601Z,1.30
2023-02-18T22:19:26.272Z,0.95
2023-02-18T22:24:29.536Z,1.42
2023-02-18T22:29:37.183Z,1.27
2023-02-18T22:34:42.292Z,1.60
2023-02-18T22:39:44.214Z,0.98
2023-02-18T22:44:46.114Z,1.60
2023-02-18T22:49:52.539Z,1.33
2023-02-18T22:54:57.664Z,1.33
2023-02-18T23:00:02.621Z,0.90
2023-02-18T23:05:04.928Z,1.60
2023-02-18T23:10:07.327Z,1.20
2023-02-18T23:15:09.558Z,1.42
2023-02-18T23:20:11.370Z,1.30
2023-02-18T23:25:32.466Z,1.67
2023-02-18T23:30:34.555Z,1.40
2023-02-18T23:35:44.978Z,1.27
2023-02-18T23:40:51.170Z,1.58
2023-02-18T23:45:59.446Z,1.00
2023-02-18T23:51:02.014Z,1.15
2023-02-18T23:56:11.801Z,1.60
